Terminal Aerodrome Forecast
Issued by NWS Flagstaff, AZ

Home | Current Version | Previous Version | Text Only | Print | Product List | Glossary On
Versions: 1 2 3 4 5 6 7 8 9 10 11 12
285
FTUS45 KFGZ 221720
TAFFLG
TAF
KFLG 221720Z 2218/2318 22021G29KT P6SM SCT040
     FM230300 VRB06KT P6SM FEW040=

USA.gov is the U.S. government's official web portal to all federal, state and local government web resources and services.